Time;durP1;ratioP1;P1;durP2;ratioP2;P2;SDS_P1;SDS_P2;PMS_P1;PMS_P2;Temp;Humidity;BMP_temperature;BMP_pressure;BME280_temperature;BME280_humidity;BME280_pressure;Samples;Min_cycle;Max_cycle;Signal;HPM_P1;HPM_P2
2022/07/11 00:01:44;;;;;;;5.93;4.70;;;;;;;18.13;71.50;98904.78;4995711;28;20179;-87
2022/07/11 00:04:09;;;;;;;5.77;4.80;;;;;;;15.60;70.84;98459.75;5013036;28;20231;-88
2022/07/11 00:06:37;;;;;;;7.27;4.90;;;;;;;18.31;70.53;98904.03;4995684;28;20170;-85
2022/07/11 00:09:03;;;;;;;6.53;4.37;;;;;;;18.95;70.57;99012.91;4997315;28;20190;-88
2022/07/11 00:11:28;;;;;;;5.47;4.57;;;;;;;18.53;69.58;98951.16;5013054;28;20260;-87
2022/07/11 00:13:54;;;;;;;4.73;4.17;;;;;;;18.52;70.00;98967.38;4996313;28;20655;-88
2022/07/11 00:16:19;;;;;;;7.13;4.67;;;;;;;17.00;69.25;98682.22;5013249;28;20197;-87
2022/07/11 00:18:45;;;;;;;4.80;4.30;;;;;;;18.55;69.46;98952.88;5013632;28;20715;-88
2022/07/11 00:21:10;;;;;;;5.67;4.40;;;;;;;16.85;69.22;98636.13;5013549;28;20171;-88
2022/07/11 00:23:36;;;;;;;4.70;4.30;;;;;;;19.03;69.71;99033.47;4995453;28;20171;-89
2022/07/11 00:26:02;;;;;;;4.70;4.30;;;;;;;18.89;70.27;99025.72;4995558;28;20175;-90
2022/07/11 00:28:28;;;;;;;4.93;4.43;;;;;;;16.76;70.47;98666.72;4996236;28;20171;-89
2022/07/11 00:30:53;;;;;;;4.63;4.10;;;;;;;19.00;69.91;99024.03;5004461;28;20248;-87
2022/07/11 00:33:19;;;;;;;4.97;4.57;;;;;;;16.71;69.13;98668.38;5023137;28;20190;-88
2022/07/11 00:35:44;;;;;;;5.10;4.60;;;;;;;18.53;69.32;98963.97;4997083;28;20725;-89
2022/07/11 00:38:10;;;;;;;4.70;4.30;;;;;;;16.62;68.56;98617.19;5014789;28;20161;-87
2022/07/11 00:40:36;;;;;;;5.00;4.10;;;;;;;16.65;68.04;98626.59;5011528;28;20194;-86
2022/07/11 00:43:03;;;;;;;4.60;4.20;;;;;;;17.94;67.53;98835.50;5012173;28;20249;-86
2022/07/11 00:45:29;;;;;;;5.67;4.30;;;;;;;19.26;66.89;99039.50;4994342;28;20611;-87
2022/07/11 00:47:56;;;;;;;5.57;4.60;;;;;;;18.48;66.09;98922.94;5013409;28;20305;-86
2022/07/11 00:50:22;;;;;;;4.90;4.40;;;;;;;19.23;65.85;99053.19;5012630;28;20220;-85
2022/07/11 00:52:49;;;;;;;4.77;4.07;;;;;;;17.99;66.14;98847.50;5012083;28;20195;-86
2022/07/11 00:55:15;;;;;;;4.53;4.13;;;;;;;19.20;66.21;99053.19;5011950;28;20357;-87
2022/07/11 00:57:41;;;;;;;4.80;4.30;;;;;;;18.76;66.13;99000.88;5012214;28;20550;-87
2022/07/11 01:00:07;;;;;;;4.93;4.30;;;;;;;17.43;65.76;98749.88;4994225;28;20617;-86
2022/07/11 01:02:33;;;;;;;5.50;4.60;;;;;;;18.50;66.19;98916.13;5011545;28;20198;-85
2022/07/11 01:04:58;;;;;;;6.30;4.63;;;;;;;18.92;66.16;98987.25;5011391;28;20305;-85
2022/07/11 01:07:24;;;;;;;4.40;4.00;;;;;;;17.07;65.61;98666.09;5011547;28;20155;-85
2022/07/11 01:09:50;;;;;;;5.00;4.50;;;;;;;17.30;66.17;98730.19;5011352;28;20174;-86
2022/07/11 01:12:17;;;;;;;4.90;4.20;;;;;;;17.20;66.67;98740.31;5011419;28;20167;-85
2022/07/11 01:14:59;;;;;;;5.33;4.50;;;;;;;19.01;67.21;99048.84;5011078;28;20162;-85
2022/07/11 01:17:24;;;;;;;6.40;4.40;;;;;;;19.05;67.06;99055.72;4993677;28;20288;-87
2022/07/11 01:19:50;;;;;;;6.07;4.70;;;;;;;18.98;67.93;99048.81;5011165;28;20635;-86
2022/07/11 01:22:19;;;;;;;4.63;3.90;;;;;;;16.34;68.29;98630.59;5011406;28;20616;-86
2022/07/11 01:24:45;;;;;;;5.90;4.40;;;;;;;16.97;68.27;98740.19;5011406;28;20259;-86
2022/07/11 01:27:12;;;;;;;5.17;4.50;;;;;;;18.72;69.27;99055.53;5019031;28;20167;-86
2022/07/11 01:29:39;;;;;;;5.00;4.50;;;;;;;18.20;69.25;98982.56;5019998;28;20163;-86
2022/07/11 01:32:05;;;;;;;7.63;4.63;;;;;;;15.89;70.02;98588.47;4995983;28;20699;-86
2022/07/11 01:34:31;;;;;;;6.33;4.30;;;;;;;15.27;71.06;98530.81;5011562;28;20558;-86
2022/07/11 01:36:56;;;;;;;4.90;4.40;;;;;;;15.64;72.32;98599.28;5009940;28;20201;-86
2022/07/11 01:39:22;;;;;;;4.57;4.17;;;;;;;15.53;73.43;98585.56;5011427;28;20237;-86
2022/07/11 01:41:47;;;;;;;7.23;4.70;;;;;;;15.77;73.59;98621.53;5011454;28;20194;-86
2022/07/11 01:44:12;;;;;;;4.90;4.50;;;;;;;17.51;73.30;98906.03;5009957;28;20167;-85
2022/07/11 01:46:38;;;;;;;7.30;4.90;;;;;;;18.26;73.90;99055.22;5011031;28;20170;-85
2022/07/11 01:49:03;;;;;;;5.07;4.13;;;;;;;16.75;73.99;98803.06;5010703;28;20169;-86
2022/07/11 01:51:29;;;;;;;5.27;4.37;;;;;;;18.21;74.44;99054.28;5012298;28;20617;-86
2022/07/11 01:53:55;;;;;;;4.50;4.10;;;;;;;16.30;73.50;98711.44;5014531;28;20166;-88
2022/07/11 01:56:22;;;;;;;4.80;4.30;;;;;;;17.58;73.15;98924.03;4997370;28;20207;-87
2022/07/11 01:58:48;;;;;;;6.40;4.00;;;;;;;14.99;72.44;98477.81;5014884;28;20540;-86
2022/07/11 02:01:14;;;;;;;5.20;4.70;;;;;;;15.83;71.69;98606.28;5017523;28;20166;-87
2022/07/11 02:03:39;;;;;;;5.43;4.30;;;;;;;16.13;71.67;98655.91;5016250;28;20222;-85
2022/07/11 02:06:05;;;;;;;4.90;4.40;;;;;;;15.78;71.55;98597.72;5016607;28;20163;-87
2022/07/11 02:08:30;;;;;;;5.17;4.20;;;;;;;16.47;71.62;98707.34;5019145;28;20159;-87
2022/07/11 02:10:56;;;;;;;4.47;3.90;;;;;;;17.79;71.54;98936.16;5021006;28;20574;-87
2022/07/11 02:13:25;;;;;;;4.97;4.20;;;;;;;16.34;71.07;98702.13;5004971;28;20174;-86
2022/07/11 02:15:53;;;;;;;5.33;4.10;;;;;;;17.90;71.26;98942.22;5021342;28;20186;-87
2022/07/11 02:18:20;;;;;;;5.43;4.23;;;;;;;16.56;71.28;98715.97;5015688;28;20228;-87
2022/07/11 02:20:46;;;;;;;4.20;3.80;;;;;;;17.79;72.23;98943.84;5015421;28;20226;-87
2022/07/11 02:23:12;;;;;;;4.70;4.30;;;;;;;15.81;72.39;98638.59;5014541;28;20162;-87
2022/07/11 02:25:41;;;;;;;6.10;4.10;;;;;;;17.06;72.26;98829.75;5014250;28;20162;-86
2022/07/11 02:28:08;;;;;;;4.23;3.83;;;;;;;16.34;72.91;98738.72;5014220;28;20556;-87
2022/07/11 02:30:34;;;;;;;7.63;4.20;;;;;;;15.82;72.27;98614.75;5014379;28;20191;-87
2022/07/11 02:33:00;;;;;;;4.83;4.00;;;;;;;16.27;72.90;98746.31;5015686;28;20595;-86
2022/07/11 02:35:26;;;;;;;5.20;4.17;;;;;;;17.73;72.78;98963.41;5017000;28;20194;-87
2022/07/11 02:37:51;;;;;;;5.23;3.93;;;;;;;18.25;73.57;99091.94;5015798;28;20254;-86
2022/07/11 02:40:17;;;;;;;6.57;4.23;;;;;;;17.62;73.34;98976.13;5014982;28;20189;-86
2022/07/11 02:42:42;;;;;;;4.67;3.67;;;;;;;18.28;73.21;99084.28;5013769;28;20170;-85
2022/07/11 02:45:09;;;;;;;4.83;4.30;;;;;;;18.35;72.99;99092.00;5013626;28;20159;-87
2022/07/11 02:47:39;;;;;;;4.77;4.03;;;;;;;17.64;72.44;98966.75;5013803;28;20163;-85
2022/07/11 02:50:09;;;;;;;4.60;4.20;;;;;;;18.43;71.34;99098.88;5013276;28;20159;-83
2022/07/11 02:52:35;;;;;;;6.53;4.27;;;;;;;16.02;71.12;98677.94;5013409;28;20249;-86
2022/07/11 02:55:00;;;;;;;6.43;3.97;;;;;;;15.68;70.69;98629.09;5013379;28;20207;-86
2022/07/11 02:57:26;;;;;;;6.37;4.40;;;;;;;16.97;70.35;98853.56;5013072;28;20255;-85
2022/07/11 02:59:51;;;;;;;6.27;4.07;;;;;;;17.79;70.42;98991.63;5012083;28;20238;-86
2022/07/11 03:02:17;;;;;;;5.73;4.27;;;;;;;16.79;70.70;98839.72;5012687;28;20194;-85
2022/07/11 03:04:42;;;;;;;5.80;4.40;;;;;;;15.83;70.79;98661.56;4995886;28;20230;-86
2022/07/11 03:07:07;;;;;;;6.07;4.23;;;;;;;17.78;70.61;98995.88;5013514;28;20159;-86
2022/07/11 03:09:33;;;;;;;4.57;4.17;;;;;;;16.90;70.49;98853.47;5013093;28;20253;-86
2022/07/11 03:11:58;;;;;;;6.03;4.10;;;;;;;17.21;70.20;98913.44;5013663;28;20163;-87
2022/07/11 03:14:24;;;;;;;5.57;4.20;;;;;;;15.86;70.74;98693.09;5013816;28;20620;-86
2022/07/11 03:16:49;;;;;;;6.20;4.20;;;;;;;17.98;70.25;99037.03;5013117;28;20199;-86
2022/07/11 03:19:15;;;;;;;5.80;3.90;;;;;;;18.45;70.15;99121.97;5013028;28;20155;-85
2022/07/11 03:21:40;;;;;;;4.47;3.80;;;;;;;15.54;69.08;98615.34;5013062;28;20253;-85
2022/07/11 03:24:05;;;;;;;6.63;4.00;;;;;;;16.81;69.66;98851.66;5012738;28;20171;-85
2022/07/11 03:26:31;;;;;;;4.23;3.83;;;;;;;17.86;68.88;99006.19;5012739;28;20163;-85
2022/07/11 03:28:56;;;;;;;4.30;3.90;;;;;;;18.57;68.60;99111.88;5012874;28;20174;-86
2022/07/11 03:31:22;;;;;;;4.80;3.90;;;;;;;18.61;68.59;99142.66;5012838;28;20573;-86
2022/07/11 03:33:47;;;;;;;5.40;4.00;;;;;;;16.08;68.12;98713.75;5013241;28;20167;-85
2022/07/11 03:36:12;;;;;;;4.80;4.20;;;;;;;16.86;68.25;98827.03;5012582;28;20673;-85
2022/07/11 03:38:38;;;;;;;5.33;4.20;;;;;;;18.10;68.37;99027.72;5012705;28;20213;-88
2022/07/11 03:41:04;;;;;;;6.50;3.97;;;;;;;18.76;67.97;99129.94;4995359;28;20225;-87
2022/07/11 03:43:30;;;;;;;4.23;3.80;;;;;;;18.10;67.63;99009.81;5013173;28;20189;-86
2022/07/11 03:45:56;;;;;;;4.30;3.90;;;;;;;18.01;67.59;98999.50;5013788;28;20163;-85
2022/07/11 03:48:21;;;;;;;5.00;4.10;;;;;;;16.01;66.77;98655.81;5013365;28;20170;-85
2022/07/11 03:50:47;;;;;;;5.57;4.13;;;;;;;17.39;67.51;98911.91;5012853;28;20167;-87
2022/07/11 03:53:13;;;;;;;6.03;4.00;;;;;;;18.36;67.30;99045.88;5011546;28;20628;-85
2022/07/11 03:55:39;;;;;;;4.50;3.80;;;;;;;18.00;67.20;99020.84;4994900;28;20206;-86
2022/07/11 03:58:04;;;;;;;5.03;3.57;;;;;;;17.50;66.82;98919.66;5012397;28;20623;-87
2022/07/11 04:00:30;;;;;;;5.10;3.63;;;;;;;17.04;66.63;98867.25;5012916;28;20225;-85
2022/07/11 04:02:55;;;;;;;6.50;4.00;;;;;;;17.09;66.72;98845.97;4995121;28;20596;-86
2022/07/11 04:05:21;;;;;;;5.13;3.83;;;;;;;16.57;66.65;98754.31;4995192;28;20174;-87
2022/07/11 04:07:46;;;;;;;4.63;3.70;;;;;;;17.19;66.45;98839.25;5012791;28;20238;-87
2022/07/11 04:10:12;;;;;;;4.30;3.77;;;;;;;19.00;66.55;99136.94;5013183;28;20234;-88
2022/07/11 04:12:37;;;;;;;6.23;3.97;;;;;;;16.84;66.33;98782.66;4982325;28;20245;-88
2022/07/11 04:15:06;;;;;;;5.53;3.50;;;;;;;17.32;66.61;98858.09;4991072;28;20222;-86
2022/07/11 04:17:31;;;;;;;4.57;3.60;;;;;;;16.70;66.36;98711.84;4974991;28;20598;-88
2022/07/11 04:19:57;;;;;;;4.87;3.93;;;;;;;17.99;66.47;98939.69;4991796;28;20191;-88
2022/07/11 04:22:23;;;;;;;5.67;3.40;;;;;;;16.74;66.40;98724.66;4990842;28;20209;-88
2022/07/11 04:24:48;;;;;;;4.60;3.27;;;;;;;17.47;66.17;98860.81;4990672;28;20183;-87
2022/07/11 04:27:13;;;;;;;3.77;3.13;;;;;;;19.27;66.29;99142.22;4992086;28;20663;-89
2022/07/11 04:29:39;;;;;;;4.13;3.10;;;;;;;18.38;66.18;98987.78;4991320;28;20925;-87
2022/07/11 04:32:05;;;;;;;3.40;3.10;;;;;;;17.98;65.66;98894.47;4975945;28;20187;-87
2022/07/11 04:34:31;;;;;;;3.73;3.07;;;;;;;17.96;64.74;98880.81;4992641;28;20647;-88
2022/07/11 04:36:56;;;;;;;4.07;2.90;;;;;;;17.32;64.46;98771.97;4992208;28;20349;-86
2022/07/11 04:39:22;;;;;;;5.43;3.07;;;;;;;19.60;64.32;99145.78;4996478;28;20237;-86
2022/07/11 04:41:48;;;;;;;4.77;3.17;;;;;;;19.37;64.41;99095.19;4996619;28;20277;-86
2022/07/11 04:44:13;;;;;;;4.87;3.47;;;;;;;18.86;64.78;99033.38;4996742;28;20209;-87
2022/07/11 04:46:39;;;;;;;5.27;3.20;;;;;;;19.04;65.51;99069.38;4993520;28;20183;-88
2022/07/11 04:49:04;;;;;;;4.80;3.10;;;;;;;19.12;65.80;99077.97;4991832;28;20180;-87
2022/07/11 04:51:30;;;;;;;5.10;2.97;;;;;;;17.30;65.85;98771.13;4991796;28;20183;-85
2022/07/11 04:53:55;;;;;;;5.77;3.10;;;;;;;18.46;66.00;98960.47;4991442;28;20253;-87
2022/07/11 04:56:20;;;;;;;5.53;3.40;;;;;;;17.34;65.92;98762.59;4990552;28;20211;-87
2022/07/11 04:58:46;;;;;;;3.33;3.00;;;;;;;19.47;66.17;99126.06;4991554;28;20182;-89
2022/07/11 05:01:11;;;;;;;3.97;3.13;;;;;;;18.88;65.15;99010.28;4991513;28;20207;-87
2022/07/11 05:03:37;;;;;;;3.90;3.10;;;;;;;18.05;64.34;98842.41;4991124;28;20227;-88
2022/07/11 05:06:04;;;;;;;4.00;3.07;;;;;;;19.41;64.14;99084.13;4990339;28;20190;-88
2022/07/11 05:08:30;;;;;;;4.30;3.00;;;;;;;19.52;64.35;99079.00;4974214;28;20558;-85
2022/07/11 05:10:56;;;;;;;3.10;2.57;;;;;;;20.01;63.45;99150.19;4991591;28;20232;-88
2022/07/11 05:13:22;;;;;;;4.20;3.10;;;;;;;20.05;63.50;99156.22;4980801;28;20253;-91
2022/07/11 05:15:48;;;;;;;6.93;3.40;;;;;;;18.44;62.73;98864.78;4991443;28;20955;-86
2022/07/11 05:18:13;;;;;;;4.40;2.77;;;;;;;20.09;62.17;99118.50;4991961;28;20679;-87
2022/07/11 05:20:39;;;;;;;6.10;3.20;;;;;;;20.26;62.28;99152.84;4990884;28;20210;-88
2022/07/11 05:23:04;;;;;;;5.10;3.30;;;;;;;19.58;61.58;99001.13;4993884;28;20671;-88
2022/07/11 05:25:30;;;;;;;4.03;3.00;;;;;;;19.83;61.18;99046.53;4995213;28;20187;-90
2022/07/11 05:27:55;;;;;;;5.53;3.10;;;;;;;19.05;60.35;98899.19;4997228;28;20262;-89
2022/07/11 05:30:21;;;;;;;7.00;3.60;;;;;;;18.47;60.08;98797.28;4983344;28;20198;-90
2022/07/11 05:32:46;;;;;;;5.00;3.00;;;;;;;20.77;60.53;99164.81;4968632;28;20211;-90
2022/07/11 05:35:12;;;;;;;4.97;3.13;;;;;;;20.71;60.30;99196.56;4997081;28;20195;-91
2022/07/11 05:37:40;;;;;;;4.00;3.00;;;;;;;18.28;59.92;98766.50;4997907;28;20318;-92
2022/07/11 05:40:06;;;;;;;3.97;3.50;;;;;;;19.75;59.89;98968.63;4996224;28;20675;-89
2022/07/11 05:42:32;;;;;;;4.47;2.87;;;;;;;19.22;58.47;98807.69;4978058;28;20219;-90
2022/07/11 05:44:58;;;;;;;4.17;3.30;;;;;;;21.21;58.17;99185.38;4997041;28;20266;-87
2022/07/11 05:47:23;;;;;;;6.60;3.13;;;;;;;20.22;58.07;99013.13;4979327;28;20584;-90
2022/07/11 05:49:49;;;;;;;5.07;2.93;;;;;;;21.10;57.65;99163.09;4995487;28;20270;-89
2022/07/11 05:52:15;;;;;;;2.97;2.50;;;;;;;20.85;57.13;99138.22;4999280;28;20194;-91
2022/07/11 05:54:40;;;;;;;3.17;2.63;;;;;;;19.22;56.27;98848.75;4993703;28;20224;-88
2022/07/11 05:57:06;;;;;;;4.00;2.70;;;;;;;21.23;56.56;99196.56;4998026;28;20207;-90
2022/07/11 05:59:31;;;;;;;3.57;2.83;;;;;;;19.80;56.92;98949.78;4999932;28;20274;-89
2022/07/11 06:01:56;;;;;;;5.20;2.60;;;;;;;20.92;55.88;99082.47;5000345;28;20175;-89
2022/07/11 06:04:22;;;;;;;2.80;2.43;;;;;;;19.62;54.94;98872.72;4997475;28;20231;-90
2022/07/11 06:06:48;;;;;;;3.53;2.40;;;;;;;19.82;54.95;98877.84;4984989;28;20184;-90
2022/07/11 06:09:13;;;;;;;2.97;2.47;;;;;;;21.72;54.06;99193.81;4978095;28;20581;-90
2022/07/11 06:11:39;;;;;;;2.47;2.03;;;;;;;19.17;51.72;98824.78;4947261;28;20566;-90
2022/07/11 06:14:08;;;;;;;2.50;2.30;;;;;;;21.66;53.57;99242.81;4987168;28;20190;-90
2022/07/11 06:16:35;;;;;;;3.50;2.20;;;;;;;21.08;53.03;99102.19;4995845;28;20207;-90
2022/07/11 06:19:00;;;;;;;2.50;2.30;;;;;;;20.21;52.25;98913.75;4994255;28;20900;-90
2022/07/11 06:21:27;;;;;;;2.30;2.00;;;;;;;20.65;52.40;99005.34;4994888;28;20522;-91
2022/07/11 06:23:54;;;;;;;5.30;2.80;;;;;;;20.42;52.14;98918.84;4993819;28;20184;-89
2022/07/11 06:26:20;;;;;;;7.27;2.50;;;;;;;18.94;50.74;98628.97;4995279;28;20179;-91
2022/07/11 06:28:45;;;;;;;5.10;2.43;;;;;;;21.24;50.68;98995.69;4993524;28;20401;-91
2022/07/11 06:31:11;;;;;;;4.53;2.27;;;;;;;21.35;50.02;99049.72;4993796;28;20186;-90
2022/07/11 06:33:37;;;;;;;4.70;2.10;;;;;;;20.66;49.92;98923.03;4993825;28;20218;-88
2022/07/11 06:36:03;;;;;;;2.90;2.30;;;;;;;21.91;49.33;99165.41;4992731;28;20257;-90
2022/07/11 06:38:29;;;;;;;3.27;2.10;;;;;;;21.49;48.78;99083.97;4994140;28;20201;-87
2022/07/11 06:40:55;;;;;;;4.30;2.30;;;;;;;21.67;48.64;99066.69;4997370;28;20175;-89
2022/07/11 06:43:21;;;;;;;3.67;2.10;;;;;;;22.76;48.04;99222.47;5000351;28;20598;-88
2022/07/11 06:45:47;;;;;;;2.50;2.10;;;;;;;21.66;47.71;99072.72;4994849;28;20222;-88
2022/07/11 06:48:13;;;;;;;3.67;2.20;;;;;;;21.02;47.26;98958.03;4993152;28;20211;-90
2022/07/11 06:50:39;;;;;;;3.27;2.10;;;;;;;21.92;46.66;99115.56;4992027;28;20198;-89
2022/07/11 06:53:05;;;;;;;3.27;2.10;;;;;;;21.92;47.21;99076.91;4993180;28;20187;-90
2022/07/11 06:55:32;;;;;;;2.30;2.10;;;;;;;20.96;46.40;98885.97;4993672;28;20214;-89
2022/07/11 06:57:57;;;;;;;4.10;2.20;;;;;;;20.74;47.17;98849.22;4992819;28;20838;-89
2022/07/11 07:00:23;;;;;;;2.53;2.00;;;;;;;22.89;46.65;99206.00;4996255;28;20178;-88
2022/07/11 07:02:48;;;;;;;5.13;2.03;;;;;;;21.43;46.42;98956.09;4992618;28;20191;-87
2022/07/11 07:05:14;;;;;;;4.97;2.50;;;;;;;22.46;46.29;99099.69;4998841;28;20262;-89
2022/07/11 07:07:40;;;;;;;3.43;2.20;;;;;;;22.30;46.65;99013.81;4995434;28;20191;-88
2022/07/11 07:10:05;;;;;;;4.60;2.50;;;;;;;23.46;45.51;99227.84;4997084;28;20190;-89
2022/07/11 07:12:31;;;;;;;3.37;2.30;;;;;;;20.31;46.26;98647.22;4987644;28;20231;-88
2022/07/11 07:14:59;;;;;;;3.33;2.20;;;;;;;20.32;46.29;98757.78;4997855;28;20179;-88
2022/07/11 07:17:25;;;;;;;3.67;2.30;;;;;;;22.66;44.59;99046.16;5001599;28;20211;-89
2022/07/11 07:19:51;;;;;;;2.60;2.17;;;;;;;24.56;44.64;99228.13;4978990;28;20310;-89
2022/07/11 07:22:16;;;;;;;3.77;2.40;;;;;;;21.80;44.25;98753.09;4978030;28;20184;-88
2022/07/11 07:24:43;;;;;;;3.17;2.13;;;;;;;23.51;44.00;99120.13;4959445;28;20235;-91
2022/07/11 07:27:08;;;;;;;4.10;2.30;;;;;;;22.53;44.66;99012.72;4957399;28;20191;-91
2022/07/11 07:29:34;;;;;;;3.23;2.23;;;;;;;22.85;43.67;98977.16;4977196;28;20184;-91
2022/07/11 07:31:59;;;;;;;6.67;2.20;;;;;;;22.59;41.07;98894.84;4958707;28;20222;-86
2022/07/11 07:34:26;;;;;;;4.43;2.10;;;;;;;24.17;40.03;99157.16;4976299;28;20180;-88
2022/07/11 07:36:51;;;;;;;2.77;2.07;;;;;;;23.66;40.87;99122.50;4957852;28;20204;-88
2022/07/11 07:39:17;;;;;;;3.40;2.10;;;;;;;24.22;40.65;99195.91;4977434;28;20247;-87
2022/07/11 07:41:43;;;;;;;7.30;2.10;;;;;;;23.67;39.61;99061.31;4976878;28;20182;-86
2022/07/11 07:44:08;;;;;;;3.83;2.10;;;;;;;24.44;39.85;99182.63;4977391;28;20222;-90
2022/07/11 07:46:34;;;;;;;2.80;1.90;;;;;;;24.76;39.30;99223.50;4958178;28;20275;-91
2022/07/11 07:49:00;;;;;;;7.23;2.50;;;;;;;24.86;39.71;99164.69;4957344;28;20666;-90
2022/07/11 07:51:26;;;;;;;2.20;2.00;;;;;;;22.74;40.71;98863.69;4975493;28;20212;-90
2022/07/11 07:53:51;;;;;;;3.50;2.10;;;;;;;22.82;39.95;98892.84;4976867;28;20649;-88
2022/07/11 07:56:17;;;;;;;3.63;2.20;;;;;;;24.11;39.63;99048.59;4980179;28;20212;-87
2022/07/11 07:58:42;;;;;;;4.50;2.30;;;;;;;24.63;39.57;99131.41;4967850;28;20184;-88
2022/07/11 08:04:12;;;;;;;3.27;2.23;;;;;;;24.89;37.97;99085.19;4942590;29;20231;-88
2022/07/11 08:06:38;;;;;;;4.80;1.93;;;;;;;24.14;37.45;98985.59;4937083;29;20189;-91
2022/07/11 08:09:05;;;;;;;4.95;2.35;;;;;;;23.61;37.57;98927.84;4937444;29;20200;-90
2022/07/11 08:11:31;;;;;;;4.27;2.07;;;;;;;23.63;37.06;98910.59;4937280;29;20200;-90
2022/07/11 08:14:01;;;;;;;3.37;2.03;;;;;;;23.94;38.29;98985.91;4940496;28;20240;-91
2022/07/11 08:16:31;;;;;;;4.80;2.17;;;;;;;24.18;37.14;98951.88;4937247;29;20779;-91
2022/07/11 08:19:03;;;;;;;5.13;2.20;;;;;;;25.51;38.39;99150.53;4921863;29;20662;-91
2022/07/11 08:21:32;;;;;;;2.23;2.00;;;;;;;25.01;39.77;99237.81;4937455;29;20205;-91
2022/07/11 08:24:04;;;;;;;3.30;2.27;;;;;;;24.17;39.62;99043.34;4936601;29;20195;-91
2022/07/11 08:26:32;;;;;;;3.83;2.10;;;;;;;24.97;40.25;99246.50;4953087;29;20194;-91
2022/07/11 08:28:59;;;;;;;3.03;2.10;;;;;;;25.21;39.76;99247.84;4938093;29;20201;-90
2022/07/11 08:31:25;;;;;;;2.20;2.00;;;;;;;25.22;38.07;99164.00;4939718;29;20224;-89
2022/07/11 08:33:51;;;;;;;4.73;2.30;;;;;;;25.84;38.14;99244.94;4953695;28;20267;-91
2022/07/11 08:36:17;;;;;;;3.13;2.00;;;;;;;24.09;37.69;98967.56;4958064;28;20742;-89
2022/07/11 08:38:46;;;;;;;3.53;2.10;;;;;;;25.65;37.22;99143.31;4975251;28;20192;-91
2022/07/11 08:41:12;;;;;;;5.53;2.70;;;;;;;25.44;35.68;98993.34;4957097;28;20192;-91
2022/07/11 08:43:39;;;;;;;5.93;2.20;;;;;;;25.64;35.96;99119.13;4983310;28;20262;-90
2022/07/11 08:46:05;;;;;;;5.65;2.40;;;;;;;26.24;37.25;99236.28;5066794;23;20699;-90
2022/07/11 08:48:32;;;;;;;3.13;2.20;;;;;;;24.61;37.82;98999.38;5002052;28;20196;-88
2022/07/11 08:50:59;;;;;;;4.00;2.40;;;;;;;24.96;38.16;99032.41;5017785;28;20198;-90
2022/07/11 08:53:27;;;;;;;4.32;2.20;;;;;;;26.08;36.56;99144.06;4993427;28;20192;-90
2022/07/11 08:55:53;;;;;;;6.35;2.35;;;;;;;26.69;37.49;99200.63;4974657;28;20235;-91
2022/07/11 08:58:19;;;;;;;7.70;3.05;;;;;;;26.80;36.28;99151.91;4987879;28;20221;-90
2022/07/11 09:00:45;;;;;;;3.45;2.30;;;;;;;25.74;35.10;98971.94;4974657;28;20183;-90
2022/07/11 09:03:14;;;;;;;5.45;2.75;;;;;;;26.69;35.80;99143.50;4991601;28;20188;-91
2022/07/11 09:05:40;;;;;;;5.82;2.50;;;;;;;26.01;36.46;99012.78;4977164;28;20577;-90
2022/07/11 09:08:21;;;;;;;2.85;2.20;;;;;;;26.15;35.36;99222.69;4996217;28;20245;-92
2022/07/11 09:10:47;;;;;;;4.35;2.22;;;;;;;26.10;35.42;99219.28;4979978;28;20696;-90
2022/07/11 09:13:12;;;;;;;3.15;2.25;;;;;;;25.48;34.69;99083.16;4969604;28;20233;-90
2022/07/11 09:15:40;;;;;;;2.97;2.20;;;;;;;23.75;35.53;98892.28;4982793;28;20193;-90
2022/07/11 09:18:30;;;;;;;2.70;2.25;;;;;;;24.05;34.65;98883.13;4984972;28;20283;-89
2022/07/11 09:26:50;;;;;;;2.80;2.10;;;;;;;26.42;33.35;99239.38;5004216;28;20411;-90
2022/07/11 09:29:24;;;;;;;2.97;2.30;;;;;;;26.69;33.10;99234.41;4985549;28;20674;-89
2022/07/11 09:31:50;;;;;;;3.92;2.15;;;;;;;24.18;31.55;98759.59;5002837;28;20718;-89
2022/07/11 09:34:27;;;;;;;3.65;2.15;;;;;;;27.26;31.99;99229.50;4983683;28;20285;-90
2022/07/11 09:36:54;;;;;;;4.00;2.10;;;;;;;24.35;32.37;98669.53;4984171;28;20794;-90
2022/07/11 09:39:25;;;;;;;3.10;1.75;;;;;;;26.72;31.75;99199.69;4996368;28;20194;-90
2022/07/11 09:41:52;;;;;;;2.38;1.70;;;;;;;25.57;31.85;99098.53;4977825;28;20886;-89
2022/07/11 09:44:24;;;;;;;8.18;2.40;;;;;;;26.64;30.97;99225.88;4992980;28;20182;-89
2022/07/11 09:46:53;;;;;;;5.82;1.95;;;;;;;26.22;30.28;99110.91;4994243;28;20318;-89
2022/07/11 09:49:36;;;;;;;4.57;1.77;;;;;;;27.22;29.90;99232.25;4993080;28;20202;-90
2022/07/11 09:52:08;;;;;;;1.67;1.50;;;;;;;26.88;30.39;99222.69;4977856;28;20191;-90
2022/07/11 09:54:33;;;;;;;4.82;1.65;;;;;;;25.49;30.22;99001.94;4977655;28;20230;-88
2022/07/11 09:57:09;;;;;;;1.58;1.48;;;;;;;25.58;30.11;99090.72;4980490;28;20662;-89
2022/07/11 09:59:35;;;;;;;2.25;1.73;;;;;;;26.54;30.30;99185.41;4978679;28;20244;-87
2022/07/11 10:02:01;;;;;;;2.60;1.67;;;;;;;25.25;30.54;99000.69;4996297;28;20325;-89
2022/07/11 10:04:35;;;;;;;4.53;1.65;;;;;;;27.17;30.51;99232.34;4997734;28;20190;-88
2022/07/11 10:07:01;;;;;;;2.63;1.50;;;;;;;26.26;28.51;99085.72;4982494;28;20181;-89
2022/07/11 10:09:28;;;;;;;3.50;1.35;;;;;;;26.65;27.81;99239.69;4995803;28;20266;-87
2022/07/11 10:11:53;;;;;;;2.70;1.50;;;;;;;25.43;27.96;99036.59;4992133;28;20198;-86
2022/07/11 10:14:19;;;;;;;2.47;1.40;;;;;;;26.15;26.90;99140.47;4984159;28;20234;-88
2022/07/11 10:17:12;;;;;;;3.67;1.63;;;;;;;27.11;27.26;99234.25;4979514;28;20195;-89
2022/07/11 10:19:43;;;;;;;5.50;1.77;;;;;;;27.35;27.09;99234.47;4996004;28;20188;-89
2022/07/11 10:22:25;;;;;;;5.43;1.80;;;;;;;27.34;26.50;99232.75;4977136;28;20191;-88
2022/07/11 10:24:52;;;;;;;1.60;1.45;;;;;;;26.81;28.95;99230.69;4994072;28;20183;-88
2022/07/11 10:27:41;;;;;;;6.03;2.80;;;;;;;27.62;28.12;99237.22;4993590;28;20188;-89
2022/07/11 10:30:07;;;;;;;6.20;3.92;;;;;;;26.17;27.92;98983.00;4993607;28;20246;-88
2022/07/11 10:32:33;;;;;;;10.50;4.60;;;;;;;27.27;28.26;99148.03;4994017;28;20192;-88
2022/07/11 10:35:07;;;;;;;20.33;12.32;;;;;;;26.92;28.57;99042.41;4976771;28;20605;-88
2022/07/11 10:37:47;;;;;;;2.40;2.17;;;;;;;26.47;29.04;99040.19;4994151;28;20378;-86
2022/07/11 10:40:13;;;;;;;3.45;2.20;;;;;;;27.51;29.46;99233.19;4993554;28;20190;-86
2022/07/11 10:42:41;;;;;;;3.28;1.90;;;;;;;27.00;29.67;99223.28;4975705;28;20193;-86
2022/07/11 10:45:09;;;;;;;3.95;2.30;;;;;;;27.58;29.46;99222.63;4992494;28;20232;-87
2022/07/11 10:47:43;;;;;;;2.55;1.85;;;;;;;26.65;29.34;99141.84;4994480;28;20176;-87
2022/07/11 10:50:33;;;;;;;3.08;2.30;;;;;;;26.94;30.37;99232.09;4994370;28;20191;-86
2022/07/11 10:53:06;;;;;;;3.20;2.40;;;;;;;26.02;30.28;99050.78;4994357;28;20692;-88
2022/07/11 10:55:40;;;;;;;3.95;2.22;;;;;;;26.67;29.94;99100.25;4975291;28;20195;-86
2022/07/11 10:58:18;;;;;;;3.10;2.15;;;;;;;27.27;30.37;99209.56;4993268;28;20187;-87
2022/07/11 11:00:43;;;;;;;3.80;2.10;;;;;;;25.26;31.04;98965.25;4993139;28;20190;-87
2022/07/11 11:03:10;;;;;;;2.60;2.10;;;;;;;25.04;31.20;98900.13;4993182;28;20186;-87
2022/07/11 11:05:42;;;;;;;3.38;2.10;;;;;;;25.56;31.15;99003.50;4991402;28;20258;-87
2022/07/11 11:08:35;;;;;;;3.60;2.10;;;;;;;27.24;30.35;99189.69;4993800;28;20183;-88
2022/07/11 11:11:05;;;;;;;2.40;1.95;;;;;;;27.29;30.39;99199.97;4994416;28;20190;-86
2022/07/11 11:13:35;;;;;;;9.18;2.40;;;;;;;26.88;31.15;99149.09;4989814;28;20238;-86
2022/07/11 11:16:02;;;;;;;7.30;2.72;;;;;;;27.65;30.74;99201.59;4981439;28;20201;-86
2022/07/11 11:18:36;;;;;;;4.00;2.10;;;;;;;27.20;30.84;99219.25;5001318;28;20245;-88
2022/07/11 11:21:06;;;;;;;2.65;2.05;;;;;;;27.49;30.51;99210.72;5003471;28;20229;-88
2022/07/11 11:23:37;;;;;;;4.18;2.50;;;;;;;27.62;30.20;99211.22;4985135;28;20217;-89
2022/07/11 11:26:07;;;;;;;4.07;2.25;;;;;;;25.29;30.28;98804.53;5007574;28;20507;-88
2022/07/11 11:28:34;;;;;;;2.72;2.15;;;;;;;26.16;29.55;98933.72;5005614;28;20655;-87
2022/07/11 11:31:03;;;;;;;3.83;2.60;;;;;;;27.02;29.69;99136.59;5002770;28;20228;-89
2022/07/11 11:33:34;;;;;;;6.38;2.65;;;;;;;26.61;29.83;99051.94;5000492;28;20951;-90
2022/07/11 11:36:00;;;;;;;9.65;2.70;;;;;;;27.46;29.44;99206.47;4997146;28;20228;-87
2022/07/11 11:38:27;;;;;;;2.47;2.00;;;;;;;25.81;30.47;98895.69;5000318;28;20255;-88
2022/07/11 11:40:52;;;;;;;3.15;1.92;;;;;;;26.10;30.24;98996.97;4981267;28;20236;-89
2022/07/11 11:43:19;;;;;;;2.58;1.92;;;;;;;26.35;30.60;99068.16;4999582;28;20189;-88